sensor_id;sensor_type;location;lat;lon;timestamp;temperature;humidity
30678;DHT22;17437;47.188;8.896;2023-04-25T00:02:13;8.80;99.90
30678;DHT22;17437;47.188;8.896;2023-04-25T00:04:46;8.80;99.90
30678;DHT22;17437;47.188;8.896;2023-04-25T00:07:20;8.80;99.90
30678;DHT22;17437;47.188;8.896;2023-04-25T00:09:51;8.80;99.90
30678;DHT22;17437;47.188;8.896;2023-04-25T00:12:23;8.80;99.90
30678;DHT22;17437;47.188;8.896;2023-04-25T00:14:56;8.80;99.90
30678;DHT22;17437;47.188;8.896;2023-04-25T00:17:28;8.70;99.90
30678;DHT22;17437;47.188;8.896;2023-04-25T00:19:59;8.70;99.90
30678;DHT22;17437;47.188;8.896;2023-04-25T00:22:32;8.50;99.90
30678;DHT22;17437;47.188;8.896;2023-04-25T00:25:05;8.50;99.90
30678;DHT22;17437;47.188;8.896;2023-04-25T00:27:37;8.40;99.90
30678;DHT22;17437;47.188;8.896;2023-04-25T00:30:12;8.40;99.90
30678;DHT22;17437;47.188;8.896;2023-04-25T00:32:45;8.40;99.90
30678;DHT22;17437;47.188;8.896;2023-04-25T00:35:17;8.40;99.90
30678;DHT22;17437;47.188;8.896;2023-04-25T00:37:48;8.30;99.90
30678;DHT22;17437;47.188;8.896;2023-04-25T00:40:20;8.30;99.90
30678;DHT22;17437;47.188;8.896;2023-04-25T00:42:52;8.30;99.90
30678;DHT22;17437;47.188;8.896;2023-04-25T00:45:27;8.20;99.90
30678;DHT22;17437;47.188;8.896;2023-04-25T00:48:00;8.20;99.90
30678;DHT22;17437;47.188;8.896;2023-04-25T00:50:33;8.30;99.90
30678;DHT22;17437;47.188;8.896;2023-04-25T00:53:05;8.30;99.90
30678;DHT22;17437;47.188;8.896;2023-04-25T00:55:39;8.30;99.90
30678;DHT22;17437;47.188;8.896;2023-04-25T00:58:10;8.30;99.90
30678;DHT22;17437;47.188;8.896;2023-04-25T01:00:42;8.20;99.90
30678;DHT22;17437;47.188;8.896;2023-04-25T01:03:16;8.20;99.90
30678;DHT22;17437;47.188;8.896;2023-04-25T01:05:50;8.30;99.90
30678;DHT22;17437;47.188;8.896;2023-04-25T01:08:23;8.30;99.90
30678;DHT22;17437;47.188;8.896;2023-04-25T01:10:56;8.30;99.90
30678;DHT22;17437;47.188;8.896;2023-04-25T01:13:27;8.30;99.90
30678;DHT22;17437;47.188;8.896;2023-04-25T01:15:59;8.30;99.90
30678;DHT22;17437;47.188;8.896;2023-04-25T01:18:31;8.40;99.90
30678;DHT22;17437;47.188;8.896;2023-04-25T01:21:07;8.40;99.90
30678;DHT22;17437;47.188;8.896;2023-04-25T01:23:40;8.40;99.90
30678;DHT22;17437;47.188;8.896;2023-04-25T01:26:13;8.40;99.90
30678;DHT22;17437;47.188;8.896;2023-04-25T01:28:45;8.40;99.90
30678;DHT22;17437;47.188;8.896;2023-04-25T01:31:16;8.40;99.90
30678;DHT22;17437;47.188;8.896;2023-04-25T01:33:48;8.40;99.90
30678;DHT22;17437;47.188;8.896;2023-04-25T01:36:20;8.50;99.90
30678;DHT22;17437;47.188;8.896;2023-04-25T01:38:53;8.40;99.90
30678;DHT22;17437;47.188;8.896;2023-04-25T01:41:25;8.40;99.90
30678;DHT22;17437;47.188;8.896;2023-04-25T01:43:57;8.40;99.90
30678;DHT22;17437;47.188;8.896;2023-04-25T01:46:29;8.30;99.90
30678;DHT22;17437;47.188;8.896;2023-04-25T01:49:01;8.20;99.90
30678;DHT22;17437;47.188;8.896;2023-04-25T01:51:32;8.10;99.90
30678;DHT22;17437;47.188;8.896;2023-04-25T01:54:04;8.00;99.90
30678;DHT22;17437;47.188;8.896;2023-04-25T01:56:38;8.00;99.90
30678;DHT22;17437;47.188;8.896;2023-04-25T01:59:12;8.00;99.90
30678;DHT22;17437;47.188;8.896;2023-04-25T02:01:43;8.00;99.90
30678;DHT22;17437;47.188;8.896;2023-04-25T02:04:15;7.90;99.90
30678;DHT22;17437;47.188;8.896;2023-04-25T02:06:47;7.90;99.90
30678;DHT22;17437;47.188;8.896;2023-04-25T02:09:18;7.90;99.90
30678;DHT22;17437;47.188;8.896;2023-04-25T02:11:50;7.90;99.90
30678;DHT22;17437;47.188;8.896;2023-04-25T02:14:21;7.90;99.90
30678;DHT22;17437;47.188;8.896;2023-04-25T02:16:53;7.80;99.90
30678;DHT22;17437;47.188;8.896;2023-04-25T02:19:24;7.90;99.90
30678;DHT22;17437;47.188;8.896;2023-04-25T02:21:56;7.80;99.90
30678;DHT22;17437;47.188;8.896;2023-04-25T02:24:28;7.60;99.90
30678;DHT22;17437;47.188;8.896;2023-04-25T02:27:00;7.50;99.90
30678;DHT22;17437;47.188;8.896;2023-04-25T02:29:31;7.40;99.90
30678;DHT22;17437;47.188;8.896;2023-04-25T02:32:03;7.30;99.90
30678;DHT22;17437;47.188;8.896;2023-04-25T02:34:34;7.30;99.90
30678;DHT22;17437;47.188;8.896;2023-04-25T02:37:07;7.30;99.90
30678;DHT22;17437;47.188;8.896;2023-04-25T02:39:38;7.30;99.90
30678;DHT22;17437;47.188;8.896;2023-04-25T02:42:10;7.30;99.90
30678;DHT22;17437;47.188;8.896;2023-04-25T02:44:41;7.30;99.90
30678;DHT22;17437;47.188;8.896;2023-04-25T02:47:13;7.30;99.90
30678;DHT22;17437;47.188;8.896;2023-04-25T02:49:44;7.40;99.90
30678;DHT22;17437;47.188;8.896;2023-04-25T02:52:16;7.40;99.90
30678;DHT22;17437;47.188;8.896;2023-04-25T02:54:47;7.50;99.90
30678;DHT22;17437;47.188;8.896;2023-04-25T02:57:19;7.50;99.90
30678;DHT22;17437;47.188;8.896;2023-04-25T02:59:51;7.50;99.90
30678;DHT22;17437;47.188;8.896;2023-04-25T03:02:22;7.60;99.90
30678;DHT22;17437;47.188;8.896;2023-04-25T03:04:54;7.60;99.90
30678;DHT22;17437;47.188;8.896;2023-04-25T03:07:26;7.60;99.90
30678;DHT22;17437;47.188;8.896;2023-04-25T03:09:57;7.70;99.90
30678;DHT22;17437;47.188;8.896;2023-04-25T03:12:29;7.70;99.90
30678;DHT22;17437;47.188;8.896;2023-04-25T03:15:00;7.80;99.90
30678;DHT22;17437;47.188;8.896;2023-04-25T03:17:32;7.80;99.90
30678;DHT22;17437;47.188;8.896;2023-04-25T03:20:05;7.70;99.90
30678;DHT22;17437;47.188;8.896;2023-04-25T03:22:38;7.60;99.90
30678;DHT22;17437;47.188;8.896;2023-04-25T03:25:10;7.60;99.90
30678;DHT22;17437;47.188;8.896;2023-04-25T03:27:41;7.50;99.90
30678;DHT22;17437;47.188;8.896;2023-04-25T03:30:13;7.60;99.90
30678;DHT22;17437;47.188;8.896;2023-04-25T03:32:45;7.60;99.90
30678;DHT22;17437;47.188;8.896;2023-04-25T03:35:16;7.60;99.90
30678;DHT22;17437;47.188;8.896;2023-04-25T03:37:48;7.70;99.90
30678;DHT22;17437;47.188;8.896;2023-04-25T03:40:19;7.70;99.90
30678;DHT22;17437;47.188;8.896;2023-04-25T03:42:51;7.80;99.90
30678;DHT22;17437;47.188;8.896;2023-04-25T03:45:22;7.80;99.90
30678;DHT22;17437;47.188;8.896;2023-04-25T03:47:54;7.90;99.90
30678;DHT22;17437;47.188;8.896;2023-04-25T03:50:26;7.90;99.90
30678;DHT22;17437;47.188;8.896;2023-04-25T03:52:57;8.00;99.90
30678;DHT22;17437;47.188;8.896;2023-04-25T03:55:29;8.00;99.90
30678;DHT22;17437;47.188;8.896;2023-04-25T03:58:01;8.10;99.90
30678;DHT22;17437;47.188;8.896;2023-04-25T04:00:33;8.10;99.90
30678;DHT22;17437;47.188;8.896;2023-04-25T04:03:04;8.20;99.90
30678;DHT22;17437;47.188;8.896;2023-04-25T04:05:36;8.20;99.90
30678;DHT22;17437;47.188;8.896;2023-04-25T04:08:10;8.20;99.90
30678;DHT22;17437;47.188;8.896;2023-04-25T04:10:41;8.20;99.90
30678;DHT22;17437;47.188;8.896;2023-04-25T04:13:14;8.10;99.90
30678;DHT22;17437;47.188;8.896;2023-04-25T04:15:45;8.10;99.90
30678;DHT22;17437;47.188;8.896;2023-04-25T04:18:17;8.00;99.90
30678;DHT22;17437;47.188;8.896;2023-04-25T04:20:48;8.00;99.90
30678;DHT22;17437;47.188;8.896;2023-04-25T04:23:21;8.00;99.90
30678;DHT22;17437;47.188;8.896;2023-04-25T04:25:52;8.10;99.90
30678;DHT22;17437;47.188;8.896;2023-04-25T04:28:25;8.10;99.90
30678;DHT22;17437;47.188;8.896;2023-04-25T04:30:57;8.20;99.90
30678;DHT22;17437;47.188;8.896;2023-04-25T04:33:28;8.20;99.90
30678;DHT22;17437;47.188;8.896;2023-04-25T04:36:01;8.20;99.90
30678;DHT22;17437;47.188;8.896;2023-04-25T04:38:33;8.30;99.90
30678;DHT22;17437;47.188;8.896;2023-04-25T04:41:08;8.40;99.90
30678;DHT22;17437;47.188;8.896;2023-04-25T04:43:39;8.50;99.90
30678;DHT22;17437;47.188;8.896;2023-04-25T04:46:11;8.60;99.90
30678;DHT22;17437;47.188;8.896;2023-04-25T04:48:43;8.60;99.90
30678;DHT22;17437;47.188;8.896;2023-04-25T04:51:15;8.80;99.90
30678;DHT22;17437;47.188;8.896;2023-04-25T04:53:47;8.80;99.90
30678;DHT22;17437;47.188;8.896;2023-04-25T04:56:19;8.80;99.90
30678;DHT22;17437;47.188;8.896;2023-04-25T04:58:53;8.90;99.90
30678;DHT22;17437;47.188;8.896;2023-04-25T05:01:24;8.80;99.90
30678;DHT22;17437;47.188;8.896;2023-04-25T05:03:57;8.70;99.90
30678;DHT22;17437;47.188;8.896;2023-04-25T05:06:31;8.70;99.90
30678;DHT22;17437;47.188;8.896;2023-04-25T05:09:03;8.60;99.90
30678;DHT22;17437;47.188;8.896;2023-04-25T05:11:35;8.50;99.90
30678;DHT22;17437;47.188;8.896;2023-04-25T05:14:06;8.60;99.90
30678;DHT22;17437;47.188;8.896;2023-04-25T05:16:38;8.60;99.90
30678;DHT22;17437;47.188;8.896;2023-04-25T05:19:09;8.50;99.90
30678;DHT22;17437;47.188;8.896;2023-04-25T05:21:41;8.50;99.90
30678;DHT22;17437;47.188;8.896;2023-04-25T05:24:13;8.50;99.90
30678;DHT22;17437;47.188;8.896;2023-04-25T05:26:44;8.60;99.90
30678;DHT22;17437;47.188;8.896;2023-04-25T05:29:16;8.80;99.90
30678;DHT22;17437;47.188;8.896;2023-04-25T05:31:47;8.80;99.90
30678;DHT22;17437;47.188;8.896;2023-04-25T05:34:19;8.80;99.90
30678;DHT22;17437;47.188;8.896;2023-04-25T05:36:51;9.00;99.90
30678;DHT22;17437;47.188;8.896;2023-04-25T05:39:22;9.00;99.90
30678;DHT22;17437;47.188;8.896;2023-04-25T05:42:00;9.10;99.90
30678;DHT22;17437;47.188;8.896;2023-04-25T05:44:32;9.30;99.90
30678;DHT22;17437;47.188;8.896;2023-04-25T05:47:03;9.40;99.90
30678;DHT22;17437;47.188;8.896;2023-04-25T05:49:35;9.40;99.90
30678;DHT22;17437;47.188;8.896;2023-04-25T05:52:07;9.40;99.90
30678;DHT22;17437;47.188;8.896;2023-04-25T05:54:39;9.60;99.90
30678;DHT22;17437;47.188;8.896;2023-04-25T05:57:18;9.90;99.90
30678;DHT22;17437;47.188;8.896;2023-04-25T05:59:50;10.20;99.90
30678;DHT22;17437;47.188;8.896;2023-04-25T06:02:22;10.10;99.90
30678;DHT22;17437;47.188;8.896;2023-04-25T06:04:53;10.10;99.90
30678;DHT22;17437;47.188;8.896;2023-04-25T06:07:28;10.20;99.90
30678;DHT22;17437;47.188;8.896;2023-04-25T06:10:01;11.30;99.90
30678;DHT22;17437;47.188;8.896;2023-04-25T06:12:34;12.90;99.90
30678;DHT22;17437;47.188;8.896;2023-04-25T06:15:11;13.50;99.90
30678;DHT22;17437;47.188;8.896;2023-04-25T06:17:44;13.90;99.90
30678;DHT22;17437;47.188;8.896;2023-04-25T06:20:16;14.30;99.90
30678;DHT22;17437;47.188;8.896;2023-04-25T06:22:47;13.70;99.90
30678;DHT22;17437;47.188;8.896;2023-04-25T06:25:19;13.10;99.90
30678;DHT22;17437;47.188;8.896;2023-04-25T06:27:51;12.40;99.90
30678;DHT22;17437;47.188;8.896;2023-04-25T06:30:23;11.80;99.90
30678;DHT22;17437;47.188;8.896;2023-04-25T06:32:59;11.50;99.90
30678;DHT22;17437;47.188;8.896;2023-04-25T06:35:31;11.40;99.90
30678;DHT22;17437;47.188;8.896;2023-04-25T06:38:02;11.30;99.90
30678;DHT22;17437;47.188;8.896;2023-04-25T06:40:34;11.20;99.90
30678;DHT22;17437;47.188;8.896;2023-04-25T06:43:06;11.10;99.90
30678;DHT22;17437;47.188;8.896;2023-04-25T06:45:37;11.00;99.90
30678;DHT22;17437;47.188;8.896;2023-04-25T06:48:09;10.80;99.90
30678;DHT22;17437;47.188;8.896;2023-04-25T06:50:42;10.60;99.90
30678;DHT22;17437;47.188;8.896;2023-04-25T06:53:13;10.50;99.90
30678;DHT22;17437;47.188;8.896;2023-04-25T06:55:46;10.30;99.90
30678;DHT22;17437;47.188;8.896;2023-04-25T06:58:17;10.10;99.90
30678;DHT22;17437;47.188;8.896;2023-04-25T07:00:49;9.90;99.90
30678;DHT22;17437;47.188;8.896;2023-04-25T07:05:58;9.80;99.90
30678;DHT22;17437;47.188;8.896;2023-04-25T07:08:30;9.80;99.90
30678;DHT22;17437;47.188;8.896;2023-04-25T07:11:02;9.70;99.90
30678;DHT22;17437;47.188;8.896;2023-04-25T07:13:33;9.70;99.90
30678;DHT22;17437;47.188;8.896;2023-04-25T07:16:06;9.60;99.90
30678;DHT22;17437;47.188;8.896;2023-04-25T07:18:37;9.50;99.90
30678;DHT22;17437;47.188;8.896;2023-04-25T07:21:09;9.40;99.90
30678;DHT22;17437;47.188;8.896;2023-04-25T07:23:41;9.10;99.90
30678;DHT22;17437;47.188;8.896;2023-04-25T07:26:12;8.70;99.90
30678;DHT22;17437;47.188;8.896;2023-04-25T07:28:44;8.40;99.90
30678;DHT22;17437;47.188;8.896;2023-04-25T07:31:17;8.20;99.90
30678;DHT22;17437;47.188;8.896;2023-04-25T07:33:49;8.00;99.90
30678;DHT22;17437;47.188;8.896;2023-04-25T07:36:20;7.80;99.90
30678;DHT22;17437;47.188;8.896;2023-04-25T07:38:52;7.60;99.90
30678;DHT22;17437;47.188;8.896;2023-04-25T07:41:23;7.50;99.90
30678;DHT22;17437;47.188;8.896;2023-04-25T07:43:55;7.40;99.90
30678;DHT22;17437;47.188;8.896;2023-04-25T07:46:26;7.30;99.90
30678;DHT22;17437;47.188;8.896;2023-04-25T07:48:58;7.30;99.90
30678;DHT22;17437;47.188;8.896;2023-04-25T07:51:30;7.30;99.90
30678;DHT22;17437;47.188;8.896;2023-04-25T07:54:01;7.20;99.90
30678;DHT22;17437;47.188;8.896;2023-04-25T07:56:33;7.10;99.90
30678;DHT22;17437;47.188;8.896;2023-04-25T07:59:07;7.00;99.90
30678;DHT22;17437;47.188;8.896;2023-04-25T08:01:40;7.10;99.90
30678;DHT22;17437;47.188;8.896;2023-04-25T08:04:12;7.10;99.90
30678;DHT22;17437;47.188;8.896;2023-04-25T08:06:45;7.00;99.90
30678;DHT22;17437;47.188;8.896;2023-04-25T08:09:16;7.00;99.90
30678;DHT22;17437;47.188;8.896;2023-04-25T08:11:48;7.10;99.90
30678;DHT22;17437;47.188;8.896;2023-04-25T08:14:19;7.20;99.90
30678;DHT22;17437;47.188;8.896;2023-04-25T08:16:51;7.20;99.90
30678;DHT22;17437;47.188;8.896;2023-04-25T08:19:23;7.20;99.90
30678;DHT22;17437;47.188;8.896;2023-04-25T08:21:54;7.30;99.90
30678;DHT22;17437;47.188;8.896;2023-04-25T08:24:26;7.30;99.90
30678;DHT22;17437;47.188;8.896;2023-04-25T08:26:58;7.40;99.90
30678;DHT22;17437;47.188;8.896;2023-04-25T08:29:30;7.40;99.90
30678;DHT22;17437;47.188;8.896;2023-04-25T08:32:02;7.50;99.90
30678;DHT22;17437;47.188;8.896;2023-04-25T08:34:33;7.60;99.90
30678;DHT22;17437;47.188;8.896;2023-04-25T08:37:06;7.80;99.90
30678;DHT22;17437;47.188;8.896;2023-04-25T08:39:39;7.80;99.90
30678;DHT22;17437;47.188;8.896;2023-04-25T08:42:13;8.00;99.90
30678;DHT22;17437;47.188;8.896;2023-04-25T08:44:46;8.10;99.90
30678;DHT22;17437;47.188;8.896;2023-04-25T08:47:21;8.10;99.90
30678;DHT22;17437;47.188;8.896;2023-04-25T08:49:54;8.20;99.90
30678;DHT22;17437;47.188;8.896;2023-04-25T08:52:30;8.40;99.90
30678;DHT22;17437;47.188;8.896;2023-04-25T08:55:02;8.60;99.90
30678;DHT22;17437;47.188;8.896;2023-04-25T08:57:35;8.70;99.90
30678;DHT22;17437;47.188;8.896;2023-04-25T09:00:09;8.60;99.90
30678;DHT22;17437;47.188;8.896;2023-04-25T09:02:43;8.50;99.90
30678;DHT22;17437;47.188;8.896;2023-04-25T09:05:15;8.50;99.90
30678;DHT22;17437;47.188;8.896;2023-04-25T09:07:48;8.70;99.90
30678;DHT22;17437;47.188;8.896;2023-04-25T09:10:20;8.90;99.90
30678;DHT22;17437;47.188;8.896;2023-04-25T09:13:04;9.30;99.90
30678;DHT22;17437;47.188;8.896;2023-04-25T09:15:46;9.70;99.90
30678;DHT22;17437;47.188;8.896;2023-04-25T09:18:25;9.90;99.90
30678;DHT22;17437;47.188;8.896;2023-04-25T09:21:05;9.90;99.90
30678;DHT22;17437;47.188;8.896;2023-04-25T09:23:43;9.80;99.90
30678;DHT22;17437;47.188;8.896;2023-04-25T09:26:16;9.70;99.90
30678;DHT22;17437;47.188;8.896;2023-04-25T09:28:48;9.50;99.90
30678;DHT22;17437;47.188;8.896;2023-04-25T09:31:23;9.40;99.90
30678;DHT22;17437;47.188;8.896;2023-04-25T09:34:00;9.30;99.90
30678;DHT22;17437;47.188;8.896;2023-04-25T09:36:32;9.20;99.90
30678;DHT22;17437;47.188;8.896;2023-04-25T09:39:07;9.10;99.90
30678;DHT22;17437;47.188;8.896;2023-04-25T09:41:42;9.00;99.90
30678;DHT22;17437;47.188;8.896;2023-04-25T09:44:14;8.90;99.90
30678;DHT22;17437;47.188;8.896;2023-04-25T09:46:49;8.90;99.90
30678;DHT22;17437;47.188;8.896;2023-04-25T09:49:24;8.90;99.90
30678;DHT22;17437;47.188;8.896;2023-04-25T09:51:56;8.80;99.90
30678;DHT22;17437;47.188;8.896;2023-04-25T09:54:28;8.70;99.90
30678;DHT22;17437;47.188;8.896;2023-04-25T09:57:02;8.50;99.90
30678;DHT22;17437;47.188;8.896;2023-04-25T09:59:36;8.50;99.90
30678;DHT22;17437;47.188;8.896;2023-04-25T10:02:10;8.30;99.90
30678;DHT22;17437;47.188;8.896;2023-04-25T10:04:45;8.10;99.90
30678;DHT22;17437;47.188;8.896;2023-04-25T10:07:18;8.00;99.90
30678;DHT22;17437;47.188;8.896;2023-04-25T10:09:54;8.00;99.90
30678;DHT22;17437;47.188;8.896;2023-04-25T10:12:27;8.00;99.90
30678;DHT22;17437;47.188;8.896;2023-04-25T10:14:59;8.00;99.90
30678;DHT22;17437;47.188;8.896;2023-04-25T10:17:32;8.10;99.90
30678;DHT22;17437;47.188;8.896;2023-04-25T10:20:08;8.00;99.90
30678;DHT22;17437;47.188;8.896;2023-04-25T10:22:44;7.90;99.90
30678;DHT22;17437;47.188;8.896;2023-04-25T10:27:54;7.90;99.90
30678;DHT22;17437;47.188;8.896;2023-04-25T10:33:10;7.90;99.90
30678;DHT22;17437;47.188;8.896;2023-04-25T10:35:45;8.00;99.90
30678;DHT22;17437;47.188;8.896;2023-04-25T10:38:16;8.10;99.90
30678;DHT22;17437;47.188;8.896;2023-04-25T10:41:04;8.00;99.90
30678;DHT22;17437;47.188;8.896;2023-04-25T10:43:39;8.00;99.90
30678;DHT22;17437;47.188;8.896;2023-04-25T10:46:18;8.00;99.90
30678;DHT22;17437;47.188;8.896;2023-04-25T10:48:51;8.10;99.90
30678;DHT22;17437;47.188;8.896;2023-04-25T10:51:24;8.20;99.90
30678;DHT22;17437;47.188;8.896;2023-04-25T10:54:01;8.30;99.90
30678;DHT22;17437;47.188;8.896;2023-04-25T10:56:33;8.40;99.90
30678;DHT22;17437;47.188;8.896;2023-04-25T10:59:07;8.60;99.90
30678;DHT22;17437;47.188;8.896;2023-04-25T11:01:41;8.80;99.90
30678;DHT22;17437;47.188;8.896;2023-04-25T11:04:22;9.10;99.90
30678;DHT22;17437;47.188;8.896;2023-04-25T11:07:10;9.20;99.90
30678;DHT22;17437;47.188;8.896;2023-04-25T11:09:41;9.30;99.90
30678;DHT22;17437;47.188;8.896;2023-04-25T11:12:13;9.30;99.90
30678;DHT22;17437;47.188;8.896;2023-04-25T11:14:45;9.30;99.90
30678;DHT22;17437;47.188;8.896;2023-04-25T11:17:18;9.40;99.90
30678;DHT22;17437;47.188;8.896;2023-04-25T11:19:50;9.60;99.90
30678;DHT22;17437;47.188;8.896;2023-04-25T11:22:23;9.70;99.90
30678;DHT22;17437;47.188;8.896;2023-04-25T11:24:55;10.00;99.90
30678;DHT22;17437;47.188;8.896;2023-04-25T11:27:26;10.20;99.90
30678;DHT22;17437;47.188;8.896;2023-04-25T11:29:58;10.30;99.90
30678;DHT22;17437;47.188;8.896;2023-04-25T11:32:29;10.50;99.90
30678;DHT22;17437;47.188;8.896;2023-04-25T11:35:01;10.60;99.90
30678;DHT22;17437;47.188;8.896;2023-04-25T11:37:33;10.40;99.90
30678;DHT22;17437;47.188;8.896;2023-04-25T11:40:07;10.20;99.90
30678;DHT22;17437;47.188;8.896;2023-04-25T11:42:43;9.80;99.90
30678;DHT22;17437;47.188;8.896;2023-04-25T11:45:15;9.50;99.90
30678;DHT22;17437;47.188;8.896;2023-04-25T11:47:50;9.00;99.90
30678;DHT22;17437;47.188;8.896;2023-04-25T11:50:23;8.60;99.90
30678;DHT22;17437;47.188;8.896;2023-04-25T11:52:56;8.40;99.90
30678;DHT22;17437;47.188;8.896;2023-04-25T11:55:30;8.30;99.90
30678;DHT22;17437;47.188;8.896;2023-04-25T11:58:02;8.20;99.90
30678;DHT22;17437;47.188;8.896;2023-04-25T12:00:34;8.20;99.90
30678;DHT22;17437;47.188;8.896;2023-04-25T12:03:08;8.10;99.90
30678;DHT22;17437;47.188;8.896;2023-04-25T12:05:40;8.20;99.90
30678;DHT22;17437;47.188;8.896;2023-04-25T12:08:12;8.40;99.90
30678;DHT22;17437;47.188;8.896;2023-04-25T12:10:46;8.70;99.90
30678;DHT22;17437;47.188;8.896;2023-04-25T12:13:23;9.00;99.90
30678;DHT22;17437;47.188;8.896;2023-04-25T12:15:55;9.40;99.90
30678;DHT22;17437;47.188;8.896;2023-04-25T12:18:27;9.60;99.90
30678;DHT22;17437;47.188;8.896;2023-04-25T12:20:58;9.60;99.90
30678;DHT22;17437;47.188;8.896;2023-04-25T12:23:30;9.40;99.90
30678;DHT22;17437;47.188;8.896;2023-04-25T12:26:02;9.30;99.90
30678;DHT22;17437;47.188;8.896;2023-04-25T12:28:34;9.10;99.90
30678;DHT22;17437;47.188;8.896;2023-04-25T12:31:07;8.90;99.90
30678;DHT22;17437;47.188;8.896;2023-04-25T12:33:39;8.90;99.90
30678;DHT22;17437;47.188;8.896;2023-04-25T12:36:12;9.00;99.90
30678;DHT22;17437;47.188;8.896;2023-04-25T12:38:44;8.90;99.90
30678;DHT22;17437;47.188;8.896;2023-04-25T12:41:15;8.90;99.90
30678;DHT22;17437;47.188;8.896;2023-04-25T12:43:47;9.00;99.90
30678;DHT22;17437;47.188;8.896;2023-04-25T12:46:18;9.00;99.90
30678;DHT22;17437;47.188;8.896;2023-04-25T12:48:50;9.10;99.90
30678;DHT22;17437;47.188;8.896;2023-04-25T12:51:22;9.20;99.90
30678;DHT22;17437;47.188;8.896;2023-04-25T12:53:55;9.30;99.90
30678;DHT22;17437;47.188;8.896;2023-04-25T12:56:26;9.50;99.90
30678;DHT22;17437;47.188;8.896;2023-04-25T12:58:59;9.80;99.90
30678;DHT22;17437;47.188;8.896;2023-04-25T13:01:32;10.00;99.90
30678;DHT22;17437;47.188;8.896;2023-04-25T13:04:05;10.20;99.90
30678;DHT22;17437;47.188;8.896;2023-04-25T13:06:38;10.30;99.90
30678;DHT22;17437;47.188;8.896;2023-04-25T13:09:09;10.60;99.90
30678;DHT22;17437;47.188;8.896;2023-04-25T13:11:43;10.80;99.90
30678;DHT22;17437;47.188;8.896;2023-04-25T13:14:15;10.90;99.90
30678;DHT22;17437;47.188;8.896;2023-04-25T13:16:47;11.20;99.90
30678;DHT22;17437;47.188;8.896;2023-04-25T13:19:19;11.30;99.90
30678;DHT22;17437;47.188;8.896;2023-04-25T13:21:51;11.40;99.90
30678;DHT22;17437;47.188;8.896;2023-04-25T13:24:23;11.70;99.90
30678;DHT22;17437;47.188;8.896;2023-04-25T13:26:54;11.70;99.90
30678;DHT22;17437;47.188;8.896;2023-04-25T13:29:26;12.00;99.90
30678;DHT22;17437;47.188;8.896;2023-04-25T13:31:57;12.00;99.90
30678;DHT22;17437;47.188;8.896;2023-04-25T13:34:29;11.80;99.90
30678;DHT22;17437;47.188;8.896;2023-04-25T13:37:01;11.50;99.90
30678;DHT22;17437;47.188;8.896;2023-04-25T13:39:51;11.80;99.90
30678;DHT22;17437;47.188;8.896;2023-04-25T13:42:24;12.10;99.90
30678;DHT22;17437;47.188;8.896;2023-04-25T13:44:56;12.10;99.90
30678;DHT22;17437;47.188;8.896;2023-04-25T13:47:28;12.20;99.90
30678;DHT22;17437;47.188;8.896;2023-04-25T13:50:00;12.40;99.90
30678;DHT22;17437;47.188;8.896;2023-04-25T13:52:34;12.50;99.90
30678;DHT22;17437;47.188;8.896;2023-04-25T13:55:07;12.70;99.90
30678;DHT22;17437;47.188;8.896;2023-04-25T13:57:38;12.70;99.90
30678;DHT22;17437;47.188;8.896;2023-04-25T14:00:12;12.70;99.90
30678;DHT22;17437;47.188;8.896;2023-04-25T14:02:44;12.70;99.90
30678;DHT22;17437;47.188;8.896;2023-04-25T14:05:17;13.00;99.90
30678;DHT22;17437;47.188;8.896;2023-04-25T14:07:49;13.20;99.90
30678;DHT22;17437;47.188;8.896;2023-04-25T14:10:21;13.50;99.90
30678;DHT22;17437;47.188;8.896;2023-04-25T14:12:52;13.90;99.90
30678;DHT22;17437;47.188;8.896;2023-04-25T14:15:25;14.20;99.90
30678;DHT22;17437;47.188;8.896;2023-04-25T14:17:58;14.50;99.90
30678;DHT22;17437;47.188;8.896;2023-04-25T14:20:30;14.50;99.90
30678;DHT22;17437;47.188;8.896;2023-04-25T14:23:02;14.30;99.90
30678;DHT22;17437;47.188;8.896;2023-04-25T14:25:41;14.00;99.90
30678;DHT22;17437;47.188;8.896;2023-04-25T14:28:20;14.00;99.90
30678;DHT22;17437;47.188;8.896;2023-04-25T14:30:56;13.80;99.90
30678;DHT22;17437;47.188;8.896;2023-04-25T14:33:28;13.50;99.90
30678;DHT22;17437;47.188;8.896;2023-04-25T14:36:01;13.20;99.90
30678;DHT22;17437;47.188;8.896;2023-04-25T14:38:33;13.00;99.90
30678;DHT22;17437;47.188;8.896;2023-04-25T14:41:05;12.70;99.90
30678;DHT22;17437;47.188;8.896;2023-04-25T14:43:36;12.70;99.90
30678;DHT22;17437;47.188;8.896;2023-04-25T14:46:09;12.60;99.90
30678;DHT22;17437;47.188;8.896;2023-04-25T14:48:42;12.60;99.90
30678;DHT22;17437;47.188;8.896;2023-04-25T14:51:13;12.80;99.90
30678;DHT22;17437;47.188;8.896;2023-04-25T14:53:45;12.70;99.90
30678;DHT22;17437;47.188;8.896;2023-04-25T14:56:16;12.60;99.90
30678;DHT22;17437;47.188;8.896;2023-04-25T14:58:48;12.40;99.90
30678;DHT22;17437;47.188;8.896;2023-04-25T15:01:20;12.10;99.90
30678;DHT22;17437;47.188;8.896;2023-04-25T15:03:52;12.00;99.90
30678;DHT22;17437;47.188;8.896;2023-04-25T15:06:24;11.80;99.90
30678;DHT22;17437;47.188;8.896;2023-04-25T15:08:57;11.70;99.90
30678;DHT22;17437;47.188;8.896;2023-04-25T15:11:28;11.50;99.90
30678;DHT22;17437;47.188;8.896;2023-04-25T15:14:00;11.40;99.90
30678;DHT22;17437;47.188;8.896;2023-04-25T15:16:32;11.30;99.90
30678;DHT22;17437;47.188;8.896;2023-04-25T15:19:04;11.20;99.90
30678;DHT22;17437;47.188;8.896;2023-04-25T15:21:36;11.10;99.90
30678;DHT22;17437;47.188;8.896;2023-04-25T15:24:08;10.90;99.90
30678;DHT22;17437;47.188;8.896;2023-04-25T15:26:40;10.80;99.90
30678;DHT22;17437;47.188;8.896;2023-04-25T15:29:11;10.70;99.90
30678;DHT22;17437;47.188;8.896;2023-04-25T15:31:43;10.60;99.90
30678;DHT22;17437;47.188;8.896;2023-04-25T15:34:14;10.60;99.90
30678;DHT22;17437;47.188;8.896;2023-04-25T15:36:47;10.50;99.90
30678;DHT22;17437;47.188;8.896;2023-04-25T15:39:19;10.40;99.90
30678;DHT22;17437;47.188;8.896;2023-04-25T15:41:50;10.30;99.90
30678;DHT22;17437;47.188;8.896;2023-04-25T15:44:22;10.20;99.90
30678;DHT22;17437;47.188;8.896;2023-04-25T15:46:54;10.20;99.90
30678;DHT22;17437;47.188;8.896;2023-04-25T15:49:26;10.00;99.90
30678;DHT22;17437;47.188;8.896;2023-04-25T15:51:58;9.80;99.90
30678;DHT22;17437;47.188;8.896;2023-04-25T15:54:30;9.70;99.90
30678;DHT22;17437;47.188;8.896;2023-04-25T15:57:01;9.70;99.90
30678;DHT22;17437;47.188;8.896;2023-04-25T15:59:33;9.60;99.90
30678;DHT22;17437;47.188;8.896;2023-04-25T16:02:05;9.30;99.90
30678;DHT22;17437;47.188;8.896;2023-04-25T16:04:40;8.90;99.90
30678;DHT22;17437;47.188;8.896;2023-04-25T16:07:12;8.60;99.90
30678;DHT22;17437;47.188;8.896;2023-04-25T16:09:44;8.30;99.90
30678;DHT22;17437;47.188;8.896;2023-04-25T16:12:16;8.10;99.90
30678;DHT22;17437;47.188;8.896;2023-04-25T16:14:48;7.90;99.90
30678;DHT22;17437;47.188;8.896;2023-04-25T16:17:20;7.80;99.90
30678;DHT22;17437;47.188;8.896;2023-04-25T16:19:57;7.80;99.90
30678;DHT22;17437;47.188;8.896;2023-04-25T16:22:31;7.70;99.90
30678;DHT22;17437;47.188;8.896;2023-04-25T16:25:03;7.70;99.90